Time;durP1;ratioP1;P1;durP2;ratioP2;P2;SDS_P1;SDS_P2;PMS_P1;PMS_P2;Temp;Humidity;BMP_temperature;BMP_pressure;BME280_temperature;BME280_humidity;BME280_pressure;Samples;Min_cycle;Max_cycle;Signal;HPM_P1;HPM_P2
2022/09/01 00:01:26;;;;;;;0.93;0.90;;;15.40;99.90;;;;;;5067176;28;20557;-69
2022/09/01 00:03:55;;;;;;;2.23;0.77;;;15.30;99.90;;;;;;5069561;28;20255;-68
2022/09/01 00:06:24;;;;;;;1.00;0.90;;;15.30;99.90;;;;;;5069643;28;20205;-71
2022/09/01 00:08:51;;;;;;;2.60;0.73;;;15.30;99.90;;;;;;5070016;28;20538;-71
2022/09/01 00:11:18;;;;;;;3.63;0.80;;;15.30;99.90;;;;;;5071003;28;20240;-71
2022/09/01 00:13:45;;;;;;;2.60;1.17;;;15.30;99.90;;;;;;5074142;28;20213;-70
2022/09/01 00:16:15;;;;;;;1.47;0.70;;;15.30;99.90;;;;;;5069956;28;20206;-71
2022/09/01 00:18:44;;;;;;;1.20;1.00;;;15.20;99.90;;;;;;5073480;28;20209;-71
2022/09/01 00:21:14;;;;;;;1.83;0.80;;;15.20;99.90;;;;;;5074025;28;20207;-72
2022/09/01 00:23:40;;;;;;;2.43;0.80;;;15.20;99.90;;;;;;5075289;28;20225;-72
2022/09/01 00:26:07;;;;;;;1.67;0.90;;;15.20;99.90;;;;;;5075244;28;20209;-72
2022/09/01 00:28:35;;;;;;;2.00;0.83;;;15.20;99.90;;;;;;5074940;28;20247;-72
2022/09/01 00:31:02;;;;;;;3.67;0.97;;;15.20;99.90;;;;;;5075623;28;20681;-72
2022/09/01 00:33:29;;;;;;;1.90;0.90;;;15.20;99.90;;;;;;5072433;28;20282;-72
2022/09/01 00:35:56;;;;;;;1.63;0.90;;;15.10;99.90;;;;;;5072735;28;20245;-71
2022/09/01 00:38:24;;;;;;;4.93;1.07;;;15.20;99.90;;;;;;5075395;28;20201;-71
2022/09/01 00:40:51;;;;;;;2.67;1.10;;;15.10;99.90;;;;;;5072808;28;20208;-72
2022/09/01 00:43:22;;;;;;;0.87;0.73;;;15.10;99.90;;;;;;5074444;28;20219;-71
2022/09/01 00:45:50;;;;;;;1.77;0.97;;;15.00;99.90;;;;;;5074417;28;20208;-71
2022/09/01 00:48:19;;;;;;;1.63;0.70;;;15.00;99.90;;;;;;5074460;28;20220;-71
2022/09/01 00:50:46;;;;;;;1.50;0.90;;;15.10;99.90;;;;;;5073392;28;20741;-72
2022/09/01 00:53:13;;;;;;;1.10;0.90;;;15.10;99.90;;;;;;5074572;28;20213;-72
2022/09/01 00:55:42;;;;;;;1.07;0.60;;;15.10;99.90;;;;;;5072915;28;20209;-72
2022/09/01 00:58:08;;;;;;;0.80;0.70;;;15.00;99.90;;;;;;5073913;28;20560;-73
2022/09/01 01:00:39;;;;;;;1.97;0.70;;;15.00;99.90;;;;;;5074642;28;20653;-72
2022/09/01 01:03:07;;;;;;;4.00;1.20;;;15.00;99.90;;;;;;5075264;28;20193;-72
2022/09/01 01:05:40;;;;;;;2.13;0.80;;;15.00;99.90;;;;;;5073470;28;20204;-72
2022/09/01 01:08:10;;;;;;;1.37;0.77;;;15.00;99.90;;;;;;5073577;28;20278;-73
2022/09/01 01:10:41;;;;;;;2.07;0.90;;;15.00;99.90;;;;;;5072662;28;20209;-72
2022/09/01 01:13:16;;;;;;;1.53;0.77;;;14.90;99.90;;;;;;5073406;28;20212;-73
2022/09/01 01:15:44;;;;;;;0.77;0.70;;;15.00;99.90;;;;;;5068676;28;20204;-70
2022/09/01 01:18:11;;;;;;;1.17;0.70;;;14.90;99.90;;;;;;5073439;28;20201;-71
2022/09/01 01:23:29;;;;;;;1.73;0.70;;;14.90;99.90;;;;;;5071956;28;20305;-71
2022/09/01 01:25:59;;;;;;;0.90;0.70;;;14.80;99.90;;;;;;5071861;28;20212;-70
2022/09/01 01:28:29;;;;;;;3.17;0.90;;;14.80;99.90;;;;;;5074315;28;20204;-71
2022/09/01 01:31:00;;;;;;;2.70;1.20;;;14.80;99.90;;;;;;5073609;28;20239;-70
2022/09/01 01:33:33;;;;;;;0.50;0.50;;;14.80;99.90;;;;;;5073662;28;20197;-71
2022/09/01 01:36:01;;;;;;;1.80;0.80;;;14.70;99.90;;;;;;5073972;28;20248;-71
2022/09/01 01:38:28;;;;;;;2.30;0.90;;;14.70;99.90;;;;;;5072725;28;20229;-72
2022/09/01 01:40:57;;;;;;;2.00;0.80;;;14.70;99.90;;;;;;5070058;28;20212;-71
2022/09/01 01:43:25;;;;;;;1.03;0.60;;;14.70;99.90;;;;;;5068703;28;20651;-71
2022/09/01 01:45:55;;;;;;;1.50;0.70;;;14.70;99.90;;;;;;5073083;28;20704;-71
2022/09/01 01:48:23;;;;;;;1.73;1.00;;;14.70;99.90;;;;;;5070795;28;20260;-70
2022/09/01 01:50:51;;;;;;;1.03;0.73;;;14.70;99.90;;;;;;5072991;28;20217;-71
2022/09/01 01:53:18;;;;;;;1.67;0.90;;;14.70;99.90;;;;;;5072622;28;20201;-70
2022/09/01 01:55:47;;;;;;;2.97;1.20;;;14.70;99.90;;;;;;5073737;28;20201;-71
2022/09/01 01:58:15;;;;;;;2.00;0.87;;;14.70;99.90;;;;;;5072871;28;20620;-71
2022/09/01 02:00:43;;;;;;;1.60;0.80;;;14.70;99.90;;;;;;5072322;28;20536;-72
2022/09/01 02:03:11;;;;;;;3.33;0.83;;;14.60;99.90;;;;;;5073474;28;20325;-71
2022/09/01 02:05:39;;;;;;;1.87;0.97;;;14.50;99.90;;;;;;5071078;28;20668;-71
2022/09/01 02:08:09;;;;;;;2.00;0.80;;;14.60;99.90;;;;;;5062395;28;20216;-73
2022/09/01 02:10:40;;;;;;;1.50;0.93;;;14.50;99.90;;;;;;5067049;28;20232;-71
2022/09/01 02:13:10;;;;;;;2.90;0.80;;;14.50;99.90;;;;;;5071476;28;20845;-72
2022/09/01 02:15:43;;;;;;;1.27;0.60;;;14.50;99.90;;;;;;5070221;28;20685;-71
2022/09/01 02:18:10;;;;;;;1.37;0.90;;;14.50;99.90;;;;;;5068523;28;20764;-71
2022/09/01 02:20:37;;;;;;;1.80;0.83;;;14.50;99.90;;;;;;5072297;28;20201;-71
2022/09/01 02:23:09;;;;;;;2.73;0.80;;;14.50;99.90;;;;;;5071621;28;20233;-71
2022/09/01 02:25:37;;;;;;;3.30;0.97;;;14.40;99.90;;;;;;5071389;28;20561;-71
2022/09/01 02:28:08;;;;;;;2.83;0.80;;;14.50;99.90;;;;;;5071912;28;20220;-71
2022/09/01 02:30:36;;;;;;;0.93;0.70;;;14.50;99.90;;;;;;5071396;28;20220;-71
2022/09/01 02:33:04;;;;;;;4.83;1.17;;;14.50;99.90;;;;;;5070635;28;20557;-70
2022/09/01 02:35:35;;;;;;;2.47;0.87;;;14.50;99.90;;;;;;5070902;28;20236;-70
2022/09/01 02:38:02;;;;;;;3.70;0.77;;;14.50;99.90;;;;;;5072028;28;20270;-70
2022/09/01 02:40:30;;;;;;;1.70;1.00;;;14.50;99.90;;;;;;5071018;28;20223;-70
2022/09/01 02:42:57;;;;;;;4.77;0.90;;;14.40;99.90;;;;;;5070996;28;20213;-70
2022/09/01 02:45:24;;;;;;;2.00;0.73;;;14.50;99.90;;;;;;5071669;28;20197;-71
2022/09/01 02:47:52;;;;;;;1.30;0.50;;;14.40;99.90;;;;;;5071835;28;20201;-71
2022/09/01 02:50:21;;;;;;;4.07;0.80;;;14.40;99.90;;;;;;5071521;28;20241;-71
2022/09/01 02:52:48;;;;;;;0.80;0.80;;;14.40;99.90;;;;;;5072363;28;20201;-71
2022/09/01 02:55:21;;;;;;;1.50;0.80;;;14.30;99.90;;;;;;5068819;28;20202;-70
2022/09/01 02:57:50;;;;;;;4.03;0.80;;;14.30;99.90;;;;;;5072135;28;20197;-70
2022/09/01 03:00:27;;;;;;;1.67;0.70;;;14.30;99.90;;;;;;5069835;28;20209;-71
2022/09/01 03:02:56;;;;;;;4.20;1.10;;;14.20;99.90;;;;;;5071818;28;20641;-71
2022/09/01 03:05:27;;;;;;;1.97;0.70;;;14.20;99.90;;;;;;5069719;28;20202;-70
2022/09/01 03:07:56;;;;;;;3.47;0.87;;;14.20;99.90;;;;;;5072659;28;20227;-71
2022/09/01 03:10:30;;;;;;;4.07;2.53;;;14.20;99.90;;;;;;5070715;28;20705;-72
2022/09/01 03:12:56;;;;;;;1.33;0.90;;;14.20;99.90;;;;;;5067137;28;20606;-70
2022/09/01 03:15:23;;;;;;;2.83;0.90;;;14.10;99.90;;;;;;5070206;28;20201;-72
2022/09/01 03:17:50;;;;;;;1.10;0.90;;;14.10;99.90;;;;;;5071740;28;20245;-71
2022/09/01 03:20:20;;;;;;;0.93;0.80;;;14.00;99.90;;;;;;5072688;28;20296;-71
2022/09/01 03:22:49;;;;;;;1.83;0.70;;;14.00;99.90;;;;;;5072625;28;20236;-71
2022/09/01 03:25:16;;;;;;;4.53;0.83;;;13.90;99.90;;;;;;5073423;28;20445;-71
2022/09/01 03:27:43;;;;;;;1.87;0.83;;;13.90;99.90;;;;;;5072655;28;20220;-71
2022/09/01 03:30:11;;;;;;;2.40;0.80;;;13.80;99.90;;;;;;5072144;28;20658;-70
2022/09/01 03:32:38;;;;;;;1.87;0.93;;;13.80;99.90;;;;;;5071569;28;20673;-71
2022/09/01 03:35:05;;;;;;;3.30;0.90;;;13.80;99.90;;;;;;5073437;28;20194;-71
2022/09/01 03:37:35;;;;;;;3.90;1.63;;;13.80;99.90;;;;;;5071294;28;20236;-71
2022/09/01 03:40:04;;;;;;;4.73;1.90;;;13.80;99.90;;;;;;5070585;28;20266;-71
2022/09/01 03:42:31;;;;;;;1.77;0.90;;;13.80;99.90;;;;;;5071143;28;20276;-71
2022/09/01 03:44:58;;;;;;;1.97;0.90;;;13.70;99.90;;;;;;5071814;28;20206;-71
2022/09/01 03:47:26;;;;;;;1.50;0.83;;;13.70;99.90;;;;;;5066230;28;20232;-70
2022/09/01 03:49:55;;;;;;;5.30;0.80;;;13.70;99.90;;;;;;5058058;28;20564;-72
2022/09/01 03:52:26;;;;;;;1.13;0.90;;;13.60;99.90;;;;;;5075775;28;20654;-70
2022/09/01 03:54:54;;;;;;;1.40;1.00;;;13.60;99.90;;;;;;5075049;28;20251;-71
2022/09/01 03:57:22;;;;;;;3.00;1.60;;;13.60;99.90;;;;;;5062210;28;20251;-71
2022/09/01 03:59:50;;;;;;;2.53;1.83;;;14.00;99.90;;;;;;5074038;28;20233;-71
2022/09/01 04:02:17;;;;;;;2.63;1.40;;;13.70;99.90;;;;;;5076229;28;20201;-72
2022/09/01 04:04:43;;;;;;;1.53;0.80;;;13.70;99.90;;;;;;5075891;28;20205;-72
2022/09/01 04:07:10;;;;;;;2.97;1.00;;;13.80;99.90;;;;;;5075468;28;20209;-71
2022/09/01 04:09:37;;;;;;;3.70;1.00;;;13.80;99.90;;;;;;5073580;28;20209;-71
2022/09/01 04:12:07;;;;;;;1.67;0.80;;;13.80;99.90;;;;;;5075913;28;20626;-72
2022/09/01 04:14:35;;;;;;;1.23;0.73;;;13.90;99.90;;;;;;5074876;28;20212;-72
2022/09/01 04:19:47;;;;;;;2.73;1.00;;;14.00;99.90;;;;;;5063651;28;20276;-71
2022/09/01 04:22:16;;;;;;;1.43;0.87;;;14.10;99.90;;;;;;5072761;28;20221;-71
2022/09/01 04:24:44;;;;;;;1.20;0.83;;;14.20;99.90;;;;;;5067885;28;20229;-72
2022/09/01 04:27:12;;;;;;;2.63;1.03;;;14.20;99.90;;;;;;5072860;28;20205;-71
2022/09/01 04:29:40;;;;;;;1.70;1.03;;;14.20;99.90;;;;;;5074828;28;20216;-71
2022/09/01 04:32:11;;;;;;;3.83;1.10;;;14.30;99.90;;;;;;5075715;28;20296;-70
2022/09/01 04:34:40;;;;;;;2.23;1.17;;;14.30;99.90;;;;;;5075147;28;20205;-70
2022/09/01 04:37:09;;;;;;;1.50;1.00;;;14.30;99.90;;;;;;5074913;28;20252;-72
2022/09/01 04:39:37;;;;;;;1.50;1.00;;;14.40;99.90;;;;;;5072836;28;20210;-70
2022/09/01 04:42:07;;;;;;;1.80;0.97;;;14.40;99.90;;;;;;5074449;28;20256;-70
2022/09/01 04:44:35;;;;;;;2.17;1.00;;;14.40;99.90;;;;;;5074150;28;20266;-70
2022/09/01 04:47:09;;;;;;;2.67;1.03;;;14.50;99.90;;;;;;5074352;28;20592;-71
2022/09/01 04:49:36;;;;;;;1.60;1.03;;;14.50;99.90;;;;;;5064151;28;20228;-71
2022/09/01 04:52:03;;;;;;;2.27;1.00;;;14.60;99.90;;;;;;5073716;28;20229;-70
2022/09/01 04:54:32;;;;;;;2.23;1.23;;;14.60;99.90;;;;;;5074728;28;20220;-70
2022/09/01 04:56:59;;;;;;;1.50;1.03;;;14.70;99.90;;;;;;5075549;28;20639;-71
2022/09/01 04:59:28;;;;;;;3.37;1.00;;;14.80;99.90;;;;;;5074098;28;20201;-71
2022/09/01 05:01:56;;;;;;;2.83;1.20;;;14.90;99.90;;;;;;5056523;28;20252;-71
2022/09/01 05:04:26;;;;;;;2.63;0.93;;;14.90;99.90;;;;;;5061455;28;20252;-71
2022/09/01 05:06:58;;;;;;;5.20;1.47;;;14.90;99.90;;;;;;5056167;28;20209;-71
2022/09/01 05:09:25;;;;;;;2.43;1.10;;;15.00;99.90;;;;;;5064501;28;20206;-71
2022/09/01 05:11:52;;;;;;;1.67;0.83;;;15.10;99.90;;;;;;5068808;28;20229;-72
2022/09/01 05:14:21;;;;;;;2.37;1.10;;;15.20;99.90;;;;;;5073068;28;20672;-71
2022/09/01 05:16:49;;;;;;;1.40;1.00;;;15.20;99.90;;;;;;5072981;28;20552;-71
2022/09/01 05:19:19;;;;;;;6.00;1.00;;;15.30;99.90;;;;;;5068593;28;20209;-70
2022/09/01 05:21:48;;;;;;;4.20;1.07;;;15.30;99.90;;;;;;5065241;28;20220;-71
2022/09/01 05:24:21;;;;;;;2.10;1.10;;;15.40;99.90;;;;;;5060109;28;20206;-71
2022/09/01 05:26:49;;;;;;;2.30;1.17;;;15.40;99.90;;;;;;5072538;28;20615;-72
2022/09/01 05:29:16;;;;;;;2.60;0.87;;;15.40;99.90;;;;;;5070671;28;20209;-67
2022/09/01 05:31:45;;;;;;;2.40;1.27;;;15.40;99.90;;;;;;5067129;28;20550;-66
2022/09/01 05:34:13;;;;;;;1.80;1.30;;;15.40;99.90;;;;;;5065480;28;20658;-73
2022/09/01 05:36:43;;;;;;;6.23;1.67;;;15.50;99.90;;;;;;5062318;28;20244;-65
2022/09/01 05:39:11;;;;;;;4.27;1.47;;;15.50;99.90;;;;;;5067562;28;20685;-64
2022/09/01 05:41:39;;;;;;;2.53;1.10;;;15.60;99.90;;;;;;5062467;28;20251;-73
2022/09/01 05:44:07;;;;;;;4.67;1.30;;;15.60;99.90;;;;;;5063498;28;20457;-69
2022/09/01 05:46:36;;;;;;;0.67;0.60;;;15.70;99.90;;;;;;5056846;28;20320;-69
2022/09/01 05:49:05;;;;;;;2.93;1.37;;;15.70;99.90;;;;;;5063312;28;20423;-70
2022/09/01 05:51:35;;;;;;;2.23;1.40;;;15.80;99.90;;;;;;5063031;28;20221;-70
2022/09/01 05:54:03;;;;;;;3.33;1.10;;;15.90;99.90;;;;;;5061471;28;20201;-69
2022/09/01 05:56:32;;;;;;;4.37;1.10;;;16.00;99.90;;;;;;5070623;28;20243;-69
2022/09/01 05:59:01;;;;;;;4.63;1.08;;;16.00;99.90;;;;;;5060444;28;20217;-69
2022/09/01 06:01:32;;;;;;;1.57;0.80;;;16.10;99.90;;;;;;5057756;28;20198;-68
2022/09/01 06:04:02;;;;;;;1.83;0.97;;;16.10;99.90;;;;;;5062208;28;20228;-69
2022/09/01 06:06:36;;;;;;;0.98;0.80;;;16.20;99.90;;;;;;5058649;28;20210;-69
2022/09/01 06:09:05;;;;;;;2.55;1.13;;;16.30;99.90;;;;;;5065521;28;20628;-69
2022/09/01 06:11:34;;;;;;;3.25;1.20;;;16.30;99.90;;;;;;5061422;28;20229;-69
2022/09/01 06:14:01;;;;;;;0.98;0.70;;;16.30;99.90;;;;;;5066762;28;20216;-70
2022/09/01 06:16:29;;;;;;;2.50;1.00;;;16.40;99.90;;;;;;5069005;28;20320;-69
2022/09/01 06:18:58;;;;;;;2.70;1.00;;;16.40;99.90;;;;;;5067752;28;20213;-69
2022/09/01 06:21:27;;;;;;;3.63;1.02;;;16.40;99.90;;;;;;5069618;28;20292;-72
2022/09/01 06:23:57;;;;;;;1.97;0.93;;;16.50;99.90;;;;;;5061731;28;20243;-66
2022/09/01 06:26:27;;;;;;;1.67;0.90;;;16.50;99.90;;;;;;5067546;28;20235;-64
2022/09/01 06:28:56;;;;;;;3.93;0.90;;;16.60;99.90;;;;;;5056068;28;20206;-65
2022/09/01 06:31:23;;;;;;;2.15;0.63;;;16.60;99.90;;;;;;5061686;28;20711;-67
2022/09/01 06:33:52;;;;;;;1.75;0.63;;;16.70;99.90;;;;;;5054012;28;20209;-65
2022/09/01 06:36:20;;;;;;;1.25;0.80;;;16.80;99.90;;;;;;5064064;28;20249;-65
2022/09/01 06:38:46;;;;;;;1.20;0.60;;;16.90;99.90;;;;;;5071515;28;20270;-72
2022/09/01 06:41:14;;;;;;;0.60;0.60;;;16.90;99.90;;;;;;5063650;28;20657;-72
2022/09/01 06:43:42;;;;;;;1.88;0.60;;;17.00;99.90;;;;;;5070694;28;20581;-72
2022/09/01 06:46:10;;;;;;;0.40;0.40;;;17.10;99.90;;;;;;5065826;28;20244;-72
2022/09/01 06:48:45;;;;;;;2.30;0.50;;;17.10;99.90;;;;;;5068973;28;20208;-73
2022/09/01 06:51:13;;;;;;;2.70;0.30;;;17.20;99.90;;;;;;5070755;28;20200;-72
2022/09/01 06:53:40;;;;;;;0.75;0.40;;;17.20;99.90;;;;;;5060908;28;20213;-73
2022/09/01 06:56:12;;;;;;;2.03;0.80;;;17.30;99.90;;;;;;5063600;28;20307;-72
2022/09/01 06:58:40;;;;;;;0.88;0.50;;;17.40;99.90;;;;;;5058935;28;20209;-71
2022/09/01 07:01:13;;;;;;;0.75;0.60;;;17.40;99.90;;;;;;5067902;28;20220;-73
2022/09/01 07:03:42;;;;;;;1.00;0.60;;;17.50;99.90;;;;;;5072556;28;20268;-73
2022/09/01 07:06:09;;;;;;;2.45;0.57;;;17.60;99.90;;;;;;5071786;28;20456;-65
2022/09/01 07:08:38;;;;;;;1.27;0.52;;;17.70;99.90;;;;;;5068109;28;20686;-65
2022/09/01 07:11:06;;;;;;;0.80;0.50;;;17.70;99.90;;;;;;5067831;28;20209;-68
2022/09/01 07:13:35;;;;;;;3.38;0.68;;;17.80;99.90;;;;;;5066496;28;20316;-65
2022/09/01 07:16:05;;;;;;;0.40;0.40;;;17.80;99.90;;;;;;5057554;28;20213;-64
2022/09/01 07:18:33;;;;;;;0.95;0.52;;;18.00;99.90;;;;;;5055731;28;20574;-65
2022/09/01 07:21:06;;;;;;;3.97;0.60;;;18.10;99.90;;;;;;5063058;28;20212;-63
2022/09/01 07:23:33;;;;;;;0.70;0.50;;;18.10;99.90;;;;;;5066407;28;20249;-64
2022/09/01 07:26:00;;;;;;;0.40;0.40;;;18.20;99.90;;;;;;5067214;28;20201;-66
2022/09/01 07:28:31;;;;;;;2.50;0.80;;;18.30;99.90;;;;;;5065750;28;20200;-68
2022/09/01 07:30:59;;;;;;;2.45;0.63;;;18.30;99.90;;;;;;5067740;28;20204;-65
2022/09/01 07:33:27;;;;;;;1.33;0.70;;;18.40;99.90;;;;;;5055253;28;20340;-66
2022/09/01 07:35:56;;;;;;;0.98;0.60;;;18.40;99.90;;;;;;5068772;28;20237;-67
2022/09/01 07:38:25;;;;;;;4.47;0.50;;;18.50;99.90;;;;;;5061560;28;20740;-65
2022/09/01 07:40:53;;;;;;;2.08;0.70;;;18.60;99.90;;;;;;5065604;28;20209;-65
2022/09/01 07:43:23;;;;;;;2.95;0.85;;;18.80;99.90;;;;;;5067248;28;20297;-65
2022/09/01 07:45:54;;;;;;;1.13;0.80;;;19.00;99.90;;;;;;5067273;28;20634;-66
2022/09/01 07:48:23;;;;;;;1.10;0.85;;;19.10;99.90;;;;;;5065395;28;20201;-68
2022/09/01 07:50:52;;;;;;;1.67;0.75;;;19.30;99.90;;;;;;5065389;28;20200;-65
2022/09/01 07:53:21;;;;;;;0.60;0.55;;;19.50;99.90;;;;;;5061124;28;20221;-65
2022/09/01 07:55:51;;;;;;;1.88;0.50;;;19.70;99.90;;;;;;5064464;28;20205;-65
2022/09/01 07:58:19;;;;;;;1.63;0.63;;;19.80;99.90;;;;;;5067624;28;20601;-66
2022/09/01 08:00:46;;;;;;;3.58;0.70;;;20.00;99.90;;;;;;5062825;28;20209;-65
2022/09/01 08:03:13;;;;;;;0.70;0.40;;;20.10;99.40;;;;;;5068077;28;20213;-67
2022/09/01 08:05:40;;;;;;;0.75;0.50;;;20.20;98.90;;;;;;5063690;28;20205;-65
2022/09/01 08:08:07;;;;;;;1.70;0.50;;;20.40;98.50;;;;;;5063323;28;20216;-67
2022/09/01 08:10:34;;;;;;;0.55;0.47;;;20.60;98.00;;;;;;5059731;28;20205;-66
2022/09/01 08:13:02;;;;;;;1.75;0.50;;;20.80;97.10;;;;;;5060716;28;20221;-68
2022/09/01 08:15:29;;;;;;;0.40;0.40;;;21.00;96.30;;;;;;5057764;28;20209;-64
2022/09/01 08:17:55;;;;;;;0.60;0.45;;;21.20;95.80;;;;;;5059777;28;20206;-65
2022/09/01 08:20:22;;;;;;;2.05;0.90;;;21.20;95.50;;;;;;5063371;28;20239;-67
2022/09/01 08:22:49;;;;;;;1.30;0.60;;;21.30;95.00;;;;;;5066341;28;20697;-66
2022/09/01 08:25:18;;;;;;;2.65;0.60;;;21.30;94.20;;;;;;5061064;28;20220;-69
2022/09/01 08:27:45;;;;;;;1.13;0.63;;;21.30;93.90;;;;;;5061564;28;20251;-66
2022/09/01 08:30:14;;;;;;;1.02;0.65;;;21.30;93.90;;;;;;5059928;28;20224;-65
2022/09/01 08:32:41;;;;;;;1.27;0.60;;;21.20;93.70;;;;;;5065060;28;20757;-64
2022/09/01 08:35:09;;;;;;;1.08;0.70;;;21.20;93.50;;;;;;5071109;28;20221;-66
2022/09/01 08:37:36;;;;;;;1.23;0.77;;;21.20;93.10;;;;;;5070035;28;20205;-64
2022/09/01 08:40:04;;;;;;;2.03;0.85;;;21.20;93.00;;;;;;5069366;28;20577;-67
2022/09/01 08:42:46;;;;;;;10.63;1.00;;;21.30;93.10;;;;;;5069013;28;20200;-66
2022/09/01 08:45:23;;;;;;;0.75;0.50;;;21.40;92.80;;;;;;5069632;28;20292;-67
2022/09/01 08:47:53;;;;;;;2.97;0.57;;;21.60;92.30;;;;;;5066352;28;20304;-68
2022/09/01 08:50:20;;;;;;;0.73;0.40;;;21.80;91.70;;;;;;5065518;28;20204;-67
2022/09/01 08:52:52;;;;;;;1.38;0.60;;;22.00;91.00;;;;;;5071521;28;20225;-67
2022/09/01 08:55:26;;;;;;;1.45;0.40;;;21.90;90.30;;;;;;5071471;28;20212;-67
2022/09/01 08:57:56;;;;;;;0.60;0.50;;;21.90;89.90;;;;;;5070774;28;20201;-68
2022/09/01 09:00:26;;;;;;;2.60;0.55;;;22.00;89.30;;;;;;5068854;28;20300;-67
2022/09/01 09:03:04;;;;;;;2.05;1.13;;;22.10;87.70;;;;;;5071466;28;20201;-66
2022/09/01 09:05:38;;;;;;;1.15;0.80;;;22.30;87.10;;;;;;5061930;28;20209;-67
2022/09/01 09:08:48;;;;;;;0.90;0.40;;;22.60;86.40;;;;;;5068810;28;20207;-66
2022/09/01 09:11:33;;;;;;;0.60;0.52;;;23.00;85.00;;;;;;5062426;28;20209;-66
2022/09/01 09:14:10;;;;;;;1.65;0.40;;;23.40;84.20;;;;;;5070696;28;20220;-67
2022/09/01 09:16:41;;;;;;;1.38;0.45;;;23.80;81.90;;;;;;5068943;28;20200;-66
2022/09/01 09:19:15;;;;;;;0.90;0.70;;;24.20;80.10;;;;;;5065750;28;20316;-67
2022/09/01 09:21:44;;;;;;;2.65;0.90;;;24.20;78.10;;;;;;5059774;28;20218;-66
2022/09/01 09:24:16;;;;;;;1.65;0.60;;;24.20;77.40;;;;;;5069406;28;20209;-67
2022/09/01 09:26:48;;;;;;;0.57;0.55;;;24.20;76.00;;;;;;5065825;28;20212;-66
2022/09/01 09:29:15;;;;;;;0.88;0.30;;;24.40;75.30;;;;;;5062616;28;20205;-67
2022/09/01 09:31:47;;;;;;;0.45;0.30;;;24.60;74.50;;;;;;5069786;28;20224;-67
2022/09/01 09:34:31;;;;;;;1.10;0.40;;;24.80;73.30;;;;;;5059471;28;20677;-67
2022/09/01 09:37:01;;;;;;;1.67;0.20;;;25.20;71.30;;;;;;5063177;28;20271;-66
2022/09/01 09:39:29;;;;;;;1.13;0.77;;;25.60;67.80;;;;;;5067520;28;20209;-66
2022/09/01 09:42:08;;;;;;;0.50;0.50;;;25.90;65.30;;;;;;5065013;28;20291;-67
2022/09/01 09:44:43;;;;;;;0.20;0.20;;;26.20;64.90;;;;;;5051199;28;20205;-67
2022/09/01 09:47:31;;;;;;;0.63;0.50;;;26.70;63.00;;;;;;5060219;28;20256;-66
2022/09/01 09:50:12;;;;;;;1.17;0.50;;;27.20;62.60;;;;;;5062939;28;20658;-67
2022/09/01 09:52:39;;;;;;;1.25;0.40;;;28.10;59.80;;;;;;5058477;28;20214;-66
2022/09/01 09:55:18;;;;;;;0.40;0.40;;;28.30;57.10;;;;;;5066695;28;20233;-66
2022/09/01 09:57:45;;;;;;;0.93;0.45;;;28.40;55.20;;;;;;5065961;28;20311;-68
2022/09/01 10:00:20;;;;;;;0.35;0.35;;;28.40;55.00;;;;;;5071720;28;20201;-68
2022/09/01 10:02:53;;;;;;;0.40;0.40;;;28.50;55.30;;;;;;5070448;28;20200;-67
2022/09/01 10:05:25;;;;;;;2.50;0.32;;;28.70;53.90;;;;;;5070320;28;20341;-65
2022/09/01 10:07:52;;;;;;;1.38;0.50;;;28.80;52.80;;;;;;5071547;28;20567;-64
2022/09/01 10:10:29;;;;;;;2.53;0.60;;;29.20;52.50;;;;;;5071432;28;20202;-66
2022/09/01 10:12:57;;;;;;;1.48;0.30;;;29.60;51.30;;;;;;5068454;28;20220;-66
2022/09/01 10:15:28;;;;;;;1.88;0.50;;;29.70;50.40;;;;;;5069616;28;20201;-68
2022/09/01 10:18:01;;;;;;;1.73;0.30;;;29.70;50.60;;;;;;5069970;28;20206;-65
2022/09/01 10:20:28;;;;;;;0.20;0.20;;;29.60;50.10;;;;;;5069127;28;20650;-66
2022/09/01 10:22:56;;;;;;;2.20;0.40;;;29.60;50.10;;;;;;5067349;28;20224;-67
2022/09/01 10:25:28;;;;;;;0.50;0.50;;;29.60;49.60;;;;;;5058233;28;20682;-69
2022/09/01 10:28:02;;;;;;;0.80;0.50;;;29.70;49.20;;;;;;5060928;28;20209;-67
2022/09/01 10:30:30;;;;;;;0.77;0.43;;;29.80;49.40;;;;;;5055447;28;20197;-68
2022/09/01 10:33:00;;;;;;;0.70;0.40;;;29.90;49.00;;;;;;5059352;28;20228;-68
2022/09/01 10:35:30;;;;;;;1.13;0.35;;;29.50;49.20;;;;;;5069116;28;20209;-67
2022/09/01 10:37:59;;;;;;;1.00;0.40;;;29.10;49.50;;;;;;5068073;28;20216;-65
2022/09/01 10:40:44;;;;;;;1.17;0.38;;;28.80;50.10;;;;;;5071455;28;20581;-66
2022/09/01 10:43:35;;;;;;;0.73;0.30;;;28.90;50.00;;;;;;5069938;28;20208;-67
2022/09/01 10:46:23;;;;;;;0.68;0.30;;;29.10;49.70;;;;;;5068409;28;20616;-67
2022/09/01 10:48:54;;;;;;;0.30;0.30;;;29.10;49.40;;;;;;5064586;28;20220;-68
2022/09/01 10:51:44;;;;;;;0.70;0.20;;;29.30;49.30;;;;;;5056175;28;20197;-67
2022/09/01 10:54:50;;;;;;;0.57;0.40;;;29.70;48.00;;;;;;5067465;28;20774;-67
2022/09/01 10:57:36;;;;;;;0.52;0.20;;;29.70;47.30;;;;;;5069692;28;20197;-68
2022/09/01 11:00:59;;;;;;;0.82;0.57;;;29.80;47.20;;;;;;5070404;28;20771;-66
2022/09/01 11:04:00;;;;;;;2.60;0.45;;;29.80;47.60;;;;;;5064804;28;20336;-64
2022/09/01 11:06:55;;;;;;;0.50;0.30;;;29.80;47.40;;;;;;5061824;28;20568;-65
2022/09/01 11:09:25;;;;;;;0.40;0.40;;;29.70;47.70;;;;;;5058396;28;20292;-67
2022/09/01 11:12:12;;;;;;;1.75;0.60;;;30.10;47.10;;;;;;5068884;28;20209;-67
2022/09/01 11:14:50;;;;;;;1.40;0.50;;;30.00;47.50;;;;;;5066558;28;20233;-67
2022/09/01 11:17:21;;;;;;;0.50;0.30;;;29.60;47.50;;;;;;5071815;28;20300;-67
2022/09/01 11:19:56;;;;;;;0.35;0.30;;;29.20;48.10;;;;;;5070893;28;20292;-70
2022/09/01 11:22:33;;;;;;;1.08;0.30;;;29.00;48.00;;;;;;5066458;28;20306;-67
2022/09/01 11:25:26;;;;;;;1.38;0.40;;;28.90;47.90;;;;;;5063135;28;20284;-70
2022/09/01 11:28:00;;;;;;;0.38;0.35;;;28.70;47.80;;;;;;5065828;28;20213;-69
2022/09/01 11:30:37;;;;;;;0.40;0.40;;;28.60;47.80;;;;;;5068386;28;20212;-67
2022/09/01 11:33:17;;;;;;;0.93;0.30;;;28.30;47.90;;;;;;5062542;28;20240;-65
2022/09/01 11:35:47;;;;;;;0.80;0.40;;;28.30;48.30;;;;;;5063123;28;20262;-68
2022/09/01 11:38:16;;;;;;;2.30;0.30;;;28.80;47.80;;;;;;5067404;28;20205;-68
2022/09/01 11:40:43;;;;;;;1.33;0.75;;;28.90;47.10;;;;;;5059614;28;20563;-67
2022/09/01 11:43:14;;;;;;;0.45;0.30;;;28.60;46.80;;;;;;5067770;28;20198;-68
2022/09/01 11:45:52;;;;;;;0.30;0.30;;;28.10;46.90;;;;;;5055382;28;20212;-66
2022/09/01 11:48:19;;;;;;;1.75;0.40;;;27.60;46.80;;;;;;5064202;28;20590;-65
2022/09/01 11:50:58;;;;;;;1.65;0.40;;;27.10;47.30;;;;;;5069363;28;20577;-66
2022/09/01 11:53:26;;;;;;;3.55;0.40;;;26.90;47.80;;;;;;5068222;28;20217;-65
2022/09/01 11:55:55;;;;;;;0.30;0.30;;;26.60;48.00;;;;;;5064220;28;20263;-66
2022/09/01 11:58:37;;;;;;;0.40;0.40;;;26.40;48.00;;;;;;5063712;28;20210;-66
2022/09/01 12:01:17;;;;;;;0.20;0.20;;;26.10;47.70;;;;;;5057955;28;20291;-65
2022/09/01 12:03:44;;;;;;;0.32;0.30;;;26.00;48.40;;;;;;5068982;28;20209;-66
2022/09/01 12:06:18;;;;;;;2.08;0.40;;;26.20;48.50;;;;;;5063749;28;20197;-66
2022/09/01 12:08:54;;;;;;;0.77;0.60;;;26.70;48.00;;;;;;5064246;28;20201;-66
2022/09/01 12:11:25;;;;;;;2.40;0.60;;;27.20;47.70;;;;;;5067019;28;20201;-66
2022/09/01 12:13:57;;;;;;;0.30;0.30;;;27.50;47.30;;;;;;5066186;28;20222;-66
2022/09/01 12:16:24;;;;;;;0.32;0.30;;;27.90;46.90;;;;;;5065012;28;20209;-66
2022/09/01 12:18:53;;;;;;;3.42;0.65;;;28.10;46.40;;;;;;5072523;28;20205;-65
2022/09/01 12:21:25;;;;;;;0.80;0.40;;;28.30;46.40;;;;;;5067681;28;20212;-66
2022/09/01 12:23:52;;;;;;;1.80;0.30;;;28.30;45.60;;;;;;5063798;28;20206;-65
2022/09/01 12:26:23;;;;;;;0.20;0.20;;;27.80;46.00;;;;;;5065378;28;20214;-66
2022/09/01 12:28:50;;;;;;;0.95;0.50;;;27.20;46.50;;;;;;5068051;28;20205;-67
2022/09/01 12:31:20;;;;;;;2.42;0.40;;;26.60;47.10;;;;;;5067672;28;20205;-66
2022/09/01 12:33:48;;;;;;;0.28;0.20;;;26.20;48.00;;;;;;5071947;28;20217;-67
2022/09/01 12:36:21;;;;;;;0.38;0.38;;;25.90;48.40;;;;;;5073211;28;20232;-65
2022/09/01 12:38:50;;;;;;;0.40;0.40;;;26.00;48.90;;;;;;5070858;28;20232;-66
2022/09/01 12:41:33;;;;;;;0.65;0.50;;;26.00;48.40;;;;;;5072068;28;20205;-67
2022/09/01 12:44:28;;;;;;;0.43;0.30;;;26.00;48.40;;;;;;5069884;28;20752;-66
2022/09/01 12:46:57;;;;;;;2.65;0.50;;;26.30;48.10;;;;;;5071859;28;20215;-67
2022/09/01 12:49:25;;;;;;;1.38;0.75;;;26.60;48.00;;;;;;5065520;28;20209;-66
2022/09/01 12:52:09;;;;;;;0.50;0.40;;;26.90;47.90;;;;;;5072025;28;20658;-67
2022/09/01 12:54:38;;;;;;;0.60;0.45;;;27.10;47.60;;;;;;5066003;28;20205;-67
2022/09/01 12:57:06;;;;;;;0.65;0.40;;;27.30;47.30;;;;;;5067064;28;20213;-65
2022/09/01 12:59:33;;;;;;;1.58;0.47;;;27.30;46.90;;;;;;5071247;28;20220;-66
2022/09/01 13:02:27;;;;;;;0.52;0.30;;;27.20;46.80;;;;;;5068063;28;20217;-65
2022/09/01 13:04:54;;;;;;;0.50;0.40;;;27.00;47.10;;;;;;5056817;28;20205;-67
2022/09/01 13:07:20;;;;;;;0.45;0.40;;;26.80;47.00;;;;;;5070844;28;20208;-68
2022/09/01 13:09:49;;;;;;;1.13;0.45;;;26.50;47.30;;;;;;5070228;28;20202;-68
2022/09/01 13:12:18;;;;;;;0.95;0.32;;;26.20;47.70;;;;;;5067579;28;20217;-66